Time;durP1;ratioP1;P1;durP2;ratioP2;P2;SDS_P1;SDS_P2;PMS_P1;PMS_P2;Temp;Humidity;BMP_temperature;BMP_pressure;BME280_temperature;BME280_humidity;BME280_pressure;Samples;Min_cycle;Max_cycle;Signal;HPM_P1;HPM_P2
2023/08/11 04:07:18;;;;;;;5.10;3.65;;;;;;;16.25;73.75;101058.84;5605365;31;80439;-59
2023/08/11 04:10:21;;;;;;;4.47;3.72;;;;;;;16.25;73.75;101058.84;5583202;32;33381;-59
2023/08/11 04:13:23;;;;;;;5.05;3.67;;;;;;;15.68;86.56;101056.41;5582396;32;33586;-60
2023/08/11 04:16:26;;;;;;;7.50;3.50;;;;;;;15.62;85.17;101069.16;5563365;32;33786;-60
2023/08/11 04:19:29;;;;;;;5.68;3.30;;;;;;;15.77;78.34;101065.44;5563523;32;34342;-60
2023/08/11 04:22:31;;;;;;;4.85;3.37;;;;;;;15.72;84.08;101069.00;5563396;32;34345;-60
2023/08/11 04:25:40;;;;;;;4.75;3.40;;;;;;;15.90;77.57;101074.66;5563630;32;33656;-59
2023/08/11 04:28:43;;;;;;;6.57;3.58;;;;;;;15.86;78.69;101082.56;5563649;32;33424;-60
2023/08/11 04:31:47;;;;;;;4.75;3.62;;;;;;;15.91;75.64;101087.06;5563410;32;33949;-60
2023/08/11 04:34:51;;;;;;;5.15;3.20;;;;;;;15.85;95.90;101078.25;5563257;32;34327;-60
2023/08/11 04:37:53;;;;;;;6.00;3.42;;;;;;;15.75;81.53;101089.25;5563639;32;34350;-60
2023/08/11 04:40:58;;;;;;;8.05;4.32;;;;;;;15.76;83.00;101073.81;5562976;32;33295;-61
2023/08/11 04:44:00;;;;;;;10.75;5.10;;;;;;;15.78;88.85;101083.25;5563256;32;34363;-60
2023/08/11 04:47:04;;;;;;;9.60;5.62;;;;;;;15.85;88.78;101089.06;5563228;32;33413;-60
2023/08/11 04:50:11;;;;;;;12.18;4.93;;;;;;;15.90;79.40;101097.09;5563147;32;34495;-60
2023/08/11 04:53:14;;;;;;;9.15;5.03;;;;;;;16.02;83.91;101093.09;5562960;32;33385;-60
2023/08/11 04:56:16;;;;;;;10.00;4.45;;;;;;;16.11;80.10;101094.00;5562878;32;33189;-60
2023/08/11 04:59:18;;;;;;;9.63;4.28;;;;;;;16.32;83.13;101100.59;5563097;32;33640;-60
2023/08/11 05:02:21;;;;;;;8.38;4.32;;;;;;;16.40;83.51;101099.91;5563047;32;33716;-60
2023/08/11 05:05:23;;;;;;;8.48;4.25;;;;;;;16.51;76.52;101102.41;5562739;32;33204;-60
2023/08/11 05:08:25;;;;;;;6.32;4.05;;;;;;;16.59;78.19;101105.22;5563238;32;34374;-60
2023/08/11 05:11:28;;;;;;;7.45;4.05;;;;;;;16.72;75.96;101108.19;5563126;32;33531;-60
2023/08/11 05:14:31;;;;;;;8.07;4.35;;;;;;;16.87;90.90;101113.31;5562688;32;33624;-62
2023/08/11 05:17:33;;;;;;;7.60;3.95;;;;;;;16.90;86.98;101110.81;5564325;32;33297;-60
2023/08/11 05:20:36;;;;;;;17.17;5.30;;;;;;;17.03;83.29;101120.00;5569886;32;33616;-60
2023/08/11 05:23:39;;;;;;;6.57;4.50;;;;;;;17.14;76.05;101117.84;5561393;32;34338;-60
2023/08/11 05:26:42;;;;;;;6.18;3.78;;;;;;;17.47;72.28;101117.63;5549950;32;33890;-60
2023/08/11 05:29:47;;;;;;;7.07;4.20;;;;;;;17.64;76.34;101120.44;5550194;32;33648;-60
2023/08/11 05:32:50;;;;;;;6.60;3.42;;;;;;;17.86;82.49;101127.00;5567488;32;33689;-59
2023/08/11 05:35:52;;;;;;;4.62;3.17;;;;;;;18.08;70.00;101125.03;5569389;32;33735;-61
2023/08/11 05:38:54;;;;;;;4.75;3.58;;;;;;;18.22;68.78;101124.94;5569501;32;33442;-61
2023/08/11 05:41:57;;;;;;;7.03;3.50;;;;;;;18.42;76.80;101122.78;5569287;32;33202;-61
2023/08/11 05:45:00;;;;;;;5.12;3.62;;;;;;;18.61;82.51;101127.91;5568814;32;33767;-61
2023/08/11 05:48:02;;;;;;;6.60;3.55;;;;;;;18.73;74.80;101128.16;5568927;32;34321;-61
2023/08/11 05:51:05;;;;;;;6.80;3.25;;;;;;;18.76;72.22;101127.50;5569360;32;34268;-61
2023/08/11 05:54:07;;;;;;;7.10;3.12;;;;;;;18.83;71.34;101124.31;5568919;32;34473;-61
2023/08/11 05:57:09;;;;;;;9.98;4.07;;;;;;;18.99;75.14;101120.03;5569392;32;33300;-61
2023/08/11 06:00:14;;;;;;;15.98;6.03;;;;;;;19.33;82.66;101119.22;5568238;32;34388;-61
2023/08/11 06:03:17;;;;;;;4.35;3.35;;;;;;;19.41;74.93;101121.16;5567130;32;33558;-61
2023/08/11 06:06:19;;;;;;;11.90;3.70;;;;;;;19.61;83.40;101114.25;5567244;32;33758;-63
2023/08/11 06:09:22;;;;;;;6.65;3.28;;;;;;;19.84;79.74;101114.84;5569106;32;33574;-61
2023/08/11 06:12:25;;;;;;;10.88;3.40;;;;;;;20.00;71.74;101134.19;5567851;32;32171;-61
2023/08/11 06:15:27;;;;;;;8.00;3.70;;;;;;;20.05;74.39;101123.09;5568903;32;33216;-61
2023/08/11 06:18:30;;;;;;;8.93;3.17;;;;;;;20.09;73.94;101139.56;5568598;32;33718;-61
2023/08/11 06:21:32;;;;;;;25.30;4.37;;;;;;;20.00;66.80;101133.34;5568804;32;33589;-62
2023/08/11 06:24:34;;;;;;;7.37;3.20;;;;;;;20.17;71.93;101136.84;5568557;32;33867;-62
2023/08/11 06:27:37;;;;;;;4.53;2.97;;;;;;;20.09;61.73;101137.66;5567455;32;34300;-62
2023/08/11 06:30:39;;;;;;;6.25;3.30;;;;;;;20.21;72.01;101130.72;5567773;32;34316;-62
2023/08/11 06:33:42;;;;;;;7.60;3.00;;;;;;;20.31;72.50;101133.09;5567709;32;33654;-62
2023/08/11 06:36:47;;;;;;;7.65;3.20;;;;;;;20.39;64.42;101140.41;5568334;32;33457;-61
2023/08/11 06:39:52;;;;;;;5.28;2.87;;;;;;;20.52;62.92;101136.69;5568452;32;33562;-61
2023/08/11 06:42:54;;;;;;;3.53;2.60;;;;;;;20.56;66.41;101147.72;5568437;32;33566;-61
2023/08/11 06:45:57;;;;;;;5.47;2.90;;;;;;;20.58;73.34;101150.91;5568102;32;33733;-60
2023/08/11 06:49:02;;;;;;;8.07;3.47;;;;;;;20.52;60.39;101144.84;5568157;32;33587;-60
2023/08/11 06:52:05;;;;;;;24.05;4.95;;;;;;;20.56;61.62;101147.72;5567946;32;34241;-60
2023/08/11 06:55:07;;;;;;;7.60;3.00;;;;;;;20.70;61.96;101150.22;5567833;32;34465;-60
2023/08/11 06:58:13;;;;;;;;;;;;;;;20.71;70.67;101146.38;5568479;32;33507;-61
2023/08/11 07:01:17;;;;;;;11.27;3.37;;;;;;;20.78;62.87;101146.63;5568796;32;33896;-60
2023/08/11 07:04:20;;;;;;;6.53;3.03;;;;;;;20.79;75.10;101159.13;5568160;32;33589;-60
2023/08/11 07:07:22;;;;;;;6.43;3.00;;;;;;;20.72;61.34;101156.13;5568009;32;33720;-60
2023/08/11 07:10:25;;;;;;;6.53;3.15;;;;;;;20.86;63.63;101152.03;5566238;32;34271;-60
2023/08/11 07:13:27;;;;;;;7.25;3.25;;;;;;;20.78;59.24;101150.16;5558669;32;33507;-60
2023/08/11 07:16:29;;;;;;;6.90;2.87;;;;;;;20.87;57.10;101155.56;5565848;32;33804;-61
2023/08/11 07:19:32;;;;;;;6.32;2.53;;;;;;;20.74;56.99;101159.34;5568022;32;33640;-60
2023/08/11 07:22:35;;;;;;;7.22;3.50;;;;;;;20.59;58.45;101158.75;5566624;32;33854;-60
2023/08/11 07:25:38;;;;;;;5.43;3.22;;;;;;;20.81;67.33;101156.88;5548753;32;33740;-61
2023/08/11 07:28:40;;;;;;;11.48;3.17;;;;;;;20.83;57.32;101149.97;5548636;32;33538;-60
2023/08/11 07:31:43;;;;;;;5.43;3.03;;;;;;;20.91;61.46;101150.25;5554734;32;34350;-61
2023/08/11 07:34:46;;;;;;;5.07;2.80;;;;;;;20.99;60.37;101155.66;5562488;32;33523;-61
2023/08/11 07:37:49;;;;;;;8.93;2.87;;;;;;;21.01;61.04;101155.31;5566898;32;32265;-60
2023/08/11 07:40:52;;;;;;;4.95;3.00;;;;;;;21.16;62.40;101156.63;5559939;32;33146;-61
2023/08/11 07:43:54;;;;;;;7.93;2.90;;;;;;;21.25;60.13;101151.91;5562040;32;33641;-60
2023/08/11 07:46:57;;;;;;;6.43;3.17;;;;;;;21.31;63.00;101151.38;5567464;32;34362;-61
2023/08/11 07:49:59;;;;;;;5.70;3.65;;;;;;;21.31;60.58;101159.53;5567340;32;34306;-60
2023/08/11 07:53:02;;;;;;;9.02;2.78;;;;;;;21.11;62.38;101161.16;5568037;32;34340;-60
2023/08/11 07:56:04;;;;;;;6.07;2.90;;;;;;;21.06;64.70;101161.38;5567804;32;33176;-60
2023/08/11 07:59:07;;;;;;;8.15;3.20;;;;;;;21.37;66.80;101164.84;5567808;32;34222;-60
2023/08/11 08:02:12;;;;;;;5.72;2.90;;;;;;;21.32;61.41;101157.62;5567595;32;33787;-61
2023/08/11 08:05:14;;;;;;;9.27;3.27;;;;;;;21.41;63.34;101161.09;5567559;32;34301;-60
2023/08/11 08:08:17;;;;;;;6.00;3.12;;;;;;;21.48;63.25;101160.56;5567269;32;32454;-60
2023/08/11 08:11:20;;;;;;;4.75;2.65;;;;;;;21.44;56.50;101162.37;5565276;32;33647;-60
2023/08/11 08:14:22;;;;;;;7.65;3.10;;;;;;;21.48;58.26;101168.75;5567092;32;33708;-60
2023/08/11 08:17:25;;;;;;;8.77;4.45;;;;;;;21.53;66.74;101163.88;5567622;32;34300;-61
2023/08/11 08:20:27;;;;;;;6.85;4.95;;;;;;;21.58;65.93;101168.31;5567124;32;33533;-60
2023/08/11 08:23:29;;;;;;;10.60;5.03;;;;;;;21.70;72.14;101173.84;5567518;32;33657;-60
2023/08/11 08:26:32;;;;;;;8.50;4.28;;;;;;;21.70;59.17;101165.66;5562570;32;33609;-60
2023/08/11 08:29:35;;;;;;;11.45;3.80;;;;;;;21.88;76.24;101174.44;5552985;32;33712;-60
2023/08/11 08:32:39;;;;;;;4.65;2.67;;;;;;;21.72;58.88;101163.41;5547589;32;34262;-60
2023/08/11 08:35:41;;;;;;;10.95;3.22;;;;;;;21.74;56.14;101160.31;5547724;32;34282;-60
2023/08/11 08:38:43;;;;;;;6.00;2.58;;;;;;;21.72;63.47;101168.84;5547671;32;34703;-60
2023/08/11 08:41:46;;;;;;;5.28;2.87;;;;;;;21.97;74.82;101166.16;5547423;32;33555;-60
2023/08/11 08:44:49;;;;;;;4.82;2.55;;;;;;;21.99;62.62;101170.16;5552184;32;33482;-60
2023/08/11 08:47:54;;;;;;;4.43;2.60;;;;;;;21.93;59.04;101165.25;5566394;32;34419;-61
2023/08/11 08:50:57;;;;;;;4.53;2.60;;;;;;;21.98;66.39;101171.28;5566976;32;33864;-60
2023/08/11 08:54:00;;;;;;;5.60;2.95;;;;;;;22.01;59.97;101172.53;5567458;32;34369;-61
2023/08/11 08:57:05;;;;;;;4.53;3.10;;;;;;;21.94;60.94;101172.31;5569298;32;34273;-60
2023/08/11 09:00:08;;;;;;;3.37;2.22;;;;;;;21.91;60.61;101179.22;5569432;32;33252;-60
2023/08/11 09:03:12;;;;;;;4.20;2.28;;;;;;;21.88;57.96;101174.44;5569944;32;33597;-60
2023/08/11 09:06:15;;;;;;;3.65;2.87;;;;;;;21.96;60.20;101167.31;5569524;32;33686;-60
2023/08/11 09:09:17;;;;;;;9.43;3.33;;;;;;;22.00;61.41;101173.69;5569484;32;34197;-61
2023/08/11 09:12:20;;;;;;;3.28;2.70;;;;;;;22.00;57.13;101170.97;5560391;32;34345;-60
2023/08/11 09:15:22;;;;;;;11.57;3.45;;;;;;;22.10;59.99;101175.19;5549711;32;33825;-61
2023/08/11 09:18:25;;;;;;;3.40;2.47;;;;;;;22.15;59.06;101174.94;5549638;32;34318;-61
2023/08/11 09:21:27;;;;;;;4.10;2.65;;;;;;;22.08;55.98;101167.31;5549574;32;33629;-61
2023/08/11 09:24:29;;;;;;;12.32;3.03;;;;;;;22.21;63.32;101168.16;5549619;32;34416;-61
2023/08/11 09:27:32;;;;;;;4.93;2.75;;;;;;;22.28;57.79;101161.03;5549885;32;33959;-61
2023/08/11 09:30:35;;;;;;;3.45;2.45;;;;;;;22.36;63.28;101170.25;5550035;32;34323;-61
2023/08/11 09:33:37;;;;;;;3.08;2.60;;;;;;;22.35;55.74;101163.19;5549488;32;33636;-61
2023/08/11 09:36:42;;;;;;;4.68;2.50;;;;;;;22.42;68.85;101165.34;5549992;32;33629;-61
2023/08/11 09:39:44;;;;;;;6.20;3.15;;;;;;;22.40;54.25;101160.22;5549381;32;33641;-61
2023/08/11 09:42:53;;;;;;;5.95;2.53;;;;;;;22.39;57.12;101155.91;5566978;32;34127;-61
2023/08/11 09:45:55;;;;;;;5.12;2.42;;;;;;;22.33;55.15;101157.25;5569188;32;33712;-61
2023/08/11 09:48:57;;;;;;;4.37;2.60;;;;;;;22.46;68.16;101167.06;5568664;32;33691;-61
2023/08/11 09:52:04;;;;;;;5.45;3.10;;;;;;;22.50;57.29;101153.50;5567880;32;33789;-61
2023/08/11 09:55:09;;;;;;;4.18;2.75;;;;;;;22.52;55.21;101153.97;5568681;32;33643;-61
2023/08/11 09:58:13;;;;;;;17.60;3.30;;;;;;;22.55;55.34;101153.28;5567462;32;33292;-61
2023/08/11 10:01:17;;;;;;;5.50;3.10;;;;;;;22.61;55.14;101148.38;5568451;32;33551;-61
2023/08/11 10:04:41;;;;;;;6.55;3.00;;;;;;;22.68;54.94;101145.84;5564720;32;33687;-61
2023/08/11 10:07:50;;;;;;;4.35;2.42;;;;;;;22.68;56.16;101151.31;5557175;32;34093;-61
2023/08/11 10:10:53;;;;;;;3.70;2.40;;;;;;;22.74;54.85;101149.94;5566980;32;34088;-61
2023/08/11 10:13:56;;;;;;;6.53;3.00;;;;;;;22.78;50.54;101148.16;5561454;32;33592;-63
2023/08/11 10:17:01;;;;;;;5.87;2.92;;;;;;;22.82;52.44;101148.25;5564777;32;33692;-61
2023/08/11 10:20:05;;;;;;;3.70;2.00;;;;;;;22.85;57.33;101137.41;5566860;32;34356;-61
2023/08/11 10:23:08;;;;;;;7.35;2.33;;;;;;;22.92;49.33;101142.31;5548669;32;33701;-61
2023/08/11 10:26:12;;;;;;;4.37;2.40;;;;;;;22.96;49.46;101137.75;5555333;32;34369;-61
2023/08/11 10:29:15;;;;;;;3.42;1.83;;;;;;;22.98;49.63;101136.28;5567286;32;33691;-61
2023/08/11 10:32:17;;;;;;;3.03;1.95;;;;;;;23.10;49.43;101140.91;5568440;31;33879;-61
2023/08/11 10:35:47;;;;;;;3.47;2.35;;;;;;;23.19;46.05;101144.28;5561488;32;33740;-61
2023/08/11 10:39:04;;;;;;;3.75;2.20;;;;;;;23.23;44.61;101135.41;5564234;32;33406;-61
2023/08/11 10:42:12;;;;;;;6.07;2.08;;;;;;;23.28;43.29;101140.59;5549318;32;33274;-61
2023/08/11 10:45:15;;;;;;;1.90;1.65;;;;;;;23.28;39.01;101140.59;5551434;32;33769;-62
2023/08/11 10:48:21;;;;;;;3.05;2.08;;;;;;;23.34;38.69;101129.06;5551031;32;34348;-61
2023/08/11 10:51:27;;;;;;;3.30;1.85;;;;;;;23.30;43.77;101128.19;5558858;32;34571;-61
2023/08/11 10:54:29;;;;;;;4.82;1.90;;;;;;;23.31;43.05;101132.53;5548937;32;33657;-61
2023/08/11 10:57:34;;;;;;;2.87;1.87;;;;;;;23.23;46.87;101125.25;5563488;32;34082;-61
2023/08/11 11:00:36;;;;;;;2.72;1.90;;;;;;;23.25;40.95;101117.50;5567036;32;33740;-61
2023/08/11 11:03:41;;;;;;;2.30;1.77;;;;;;;23.29;41.69;101115.66;5566187;32;34059;-61
2023/08/11 11:06:45;;;;;;;2.97;2.10;;;;;;;23.39;42.69;101111.63;5559714;32;33708;-61
2023/08/11 11:09:47;;;;;;;4.20;2.08;;;;;;;23.48;41.15;101116.94;5566022;32;33719;-61
2023/08/11 11:12:50;;;;;;;5.20;2.03;;;;;;;23.58;38.86;101119.19;5561794;32;34289;-61
2023/08/11 11:15:52;;;;;;;7.45;2.00;;;;;;;23.61;42.10;101121.22;5559100;32;33310;-61
2023/08/11 11:18:55;;;;;;;3.35;2.03;;;;;;;23.66;45.45;101129.16;5558233;32;34346;-61
2023/08/11 11:21:59;;;;;;;19.25;2.62;;;;;;;23.58;40.15;101117.22;5562082;32;34099;-61
2023/08/11 11:25:02;;;;;;;2.85;2.17;;;;;;;23.54;42.13;101115.53;5560339;32;33662;-61
2023/08/11 11:28:05;;;;;;;4.60;2.50;;;;;;;23.42;43.18;101117.19;5559379;32;34366;-61
2023/08/11 11:31:07;;;;;;;3.75;2.80;;;;;;;23.49;44.10;101124.00;5561900;32;33918;-61
2023/08/11 11:34:10;;;;;;;5.45;2.50;;;;;;;23.30;44.40;101114.50;5566440;32;34367;-61
2023/08/11 11:37:12;;;;;;;2.60;2.17;;;;;;;23.32;48.11;101112.22;5567808;32;33434;-61
2023/08/11 11:40:14;;;;;;;4.25;2.62;;;;;;;23.29;50.72;101114.87;5559523;32;33718;-60
2023/08/11 11:43:17;;;;;;;5.03;2.45;;;;;;;23.37;46.95;101106.50;5562037;32;33627;-61
2023/08/11 11:46:20;;;;;;;7.30;2.60;;;;;;;23.41;47.53;101109.31;5567092;32;33640;-61
2023/08/11 11:49:23;;;;;;;3.45;2.30;;;;;;;23.50;46.42;101118.16;5565357;32;33639;-61
2023/08/11 11:52:32;;;;;;;2.83;2.00;;;;;;;23.67;43.85;101114.31;5562144;32;33725;-61
2023/08/11 11:55:45;;;;;;;4.18;2.40;;;;;;;23.70;44.26;101102.69;5559777;32;34368;-61
2023/08/11 11:58:51;;;;;;;3.53;2.37;;;;;;;23.61;43.97;101116.53;5547931;32;33729;-61
2023/08/11 12:01:58;;;;;;;4.35;2.20;;;;;;;23.60;46.45;101120.41;5561913;32;33222;-61
2023/08/11 12:05:03;;;;;;;3.37;2.50;;;;;;;23.60;46.50;101116.88;5567020;32;34279;-61
2023/08/11 12:08:23;;;;;;;4.32;2.62;;;;;;;23.41;46.94;101117.53;5554668;32;33763;-61
2023/08/11 12:11:27;;;;;;;3.28;2.42;;;;;;;23.33;48.86;101116.53;5566494;32;33453;-61
2023/08/11 12:14:30;;;;;;;4.20;2.50;;;;;;;23.30;47.88;101114.50;5564826;32;34269;-61
2023/08/11 12:17:34;;;;;;;2.85;2.05;;;;;;;23.20;48.90;101115.00;5567331;32;33655;-61
2023/08/11 12:20:36;;;;;;;6.45;2.70;;;;;;;23.25;49.27;101114.75;5557708;32;33731;-61
2023/08/11 12:23:39;;;;;;;5.25;2.50;;;;;;;23.38;48.70;101112.78;5566897;32;34326;-61
2023/08/11 12:26:41;;;;;;;5.07;2.58;;;;;;;23.37;47.59;101105.69;5565198;32;33723;-61
2023/08/11 12:29:43;;;;;;;5.25;2.60;;;;;;;23.53;48.02;101098.31;5565825;32;33415;-61
2023/08/11 12:32:46;;;;;;;10.85;2.80;;;;;;;23.54;47.23;101110.88;5569098;32;33793;-61
2023/08/11 12:35:49;;;;;;;15.10;3.20;;;;;;;23.54;45.73;101107.31;5569459;31;32062;-61
2023/08/11 12:38:51;;;;;;;14.35;3.78;;;;;;;23.52;48.61;101109.62;5570007;32;33675;-61
2023/08/11 12:41:54;;;;;;;12.00;2.90;;;;;;;23.48;48.02;101114.19;5569938;32;34538;-61
2023/08/11 12:44:56;;;;;;;3.12;2.65;;;;;;;23.32;46.62;101117.69;5569781;32;33656;-61
2023/08/11 12:47:58;;;;;;;3.25;2.25;;;;;;;23.35;45.99;101113.47;5569533;32;34430;-61
2023/08/11 12:51:01;;;;;;;5.87;2.33;;;;;;;23.32;46.95;101116.91;5569770;32;33775;-61
2023/08/11 12:54:03;;;;;;;6.53;2.50;;;;;;;23.20;46.65;101107.59;5564840;32;33719;-61
2023/08/11 12:57:06;;;;;;;3.95;2.17;;;;;;;23.30;47.24;101113.72;5568124;32;33728;-61
2023/08/11 13:00:10;;;;;;;4.47;2.30;;;;;;;23.35;47.38;101110.75;5569206;32;34345;-61
2023/08/11 13:03:12;;;;;;;2.33;2.00;;;;;;;23.51;50.49;101105.28;5567441;32;33633;-61
2023/08/11 13:06:15;;;;;;;2.10;1.90;;;;;;;23.58;44.60;101100.03;5549781;32;33652;-61
2023/08/11 13:09:17;;;;;;;5.28;2.37;;;;;;;23.70;43.77;101097.22;5550154;32;33687;-61
2023/08/11 13:12:20;;;;;;;3.50;2.08;;;;;;;23.69;42.99;101106.59;5549991;32;33614;-61
2023/08/11 13:15:23;;;;;;;6.20;2.55;;;;;;;23.75;42.31;101096.97;5565808;31;33653;-61
2023/08/11 13:18:25;;;;;;;2.45;2.03;;;;;;;23.82;42.47;101099.09;5550942;32;33758;-61
2023/08/11 13:21:28;;;;;;;9.10;2.90;;;;;;;23.89;43.71;101100.06;5561172;32;33434;-61
2023/08/11 13:24:33;;;;;;;4.95;2.20;;;;;;;23.92;52.36;101107.56;5554361;32;33553;-61
2023/08/11 13:27:36;;;;;;;4.20;2.03;;;;;;;23.76;44.65;101105.97;5561272;32;34256;-61
2023/08/11 13:30:40;;;;;;;2.55;2.20;;;;;;;23.82;43.91;101093.63;5559997;32;33643;-61
2023/08/11 13:33:44;;;;;;;3.70;1.92;;;;;;;23.85;41.55;101101.91;5557929;32;33995;-61
2023/08/11 13:36:47;;;;;;;2.67;2.00;;;;;;;23.81;47.72;101101.03;5569254;32;33158;-61
2023/08/11 13:39:49;;;;;;;3.95;2.22;;;;;;;23.73;43.92;101088.31;5568728;32;34307;-61
2023/08/11 13:42:52;;;;;;;5.78;2.22;;;;;;;23.80;47.63;101091.22;5568757;32;34404;-61
2023/08/11 13:45:54;;;;;;;4.87;2.00;;;;;;;23.74;42.15;101086.34;5568726;32;33781;-61
2023/08/11 13:48:56;;;;;;;9.77;2.42;;;;;;;23.72;45.10;101084.00;5568581;32;33770;-61
2023/08/11 13:51:59;;;;;;;4.03;2.08;;;;;;;23.90;39.52;101076.22;5569104;32;33446;-61
2023/08/11 13:55:03;;;;;;;7.55;2.08;;;;;;;24.10;37.58;101080.59;5569528;32;34274;-60
2023/08/11 13:58:08;;;;;;;5.32;2.55;;;;;;;24.04;40.23;101075.75;5568487;32;33707;-60
2023/08/11 14:01:10;;;;;;;3.28;2.12;;;;;;;24.05;43.53;101080.91;5567691;32;33828;-59
2023/08/11 14:04:13;;;;;;;4.55;1.65;;;;;;;24.06;37.85;101079.75;5568798;32;34303;-60
2023/08/11 14:07:15;;;;;;;12.75;2.30;;;;;;;24.04;39.72;101084.78;5568927;32;33257;-60
2023/08/11 14:10:32;;;;;;;4.50;1.80;;;;;;;24.04;39.59;101083.97;5567641;32;34331;-61
2023/08/11 14:13:34;;;;;;;6.80;2.12;;;;;;;24.08;42.32;101073.91;5568423;32;33696;-60
2023/08/11 14:16:36;;;;;;;3.70;2.10;;;;;;;24.07;37.71;101084.09;5568686;32;33890;-60
2023/08/11 14:19:39;;;;;;;4.10;1.87;;;;;;;24.12;36.59;101077.53;5567863;32;34438;-61
2023/08/11 14:22:41;;;;;;;7.85;2.08;;;;;;;24.14;36.15;101076.03;5568595;32;33651;-60
2023/08/11 14:25:46;;;;;;;8.85;2.65;;;;;;;24.23;35.03;101075.81;5568849;32;33704;-59
2023/08/11 14:28:48;;;;;;;4.15;2.30;;;;;;;24.19;39.86;101074.97;5568325;32;34355;-60
2023/08/11 14:31:50;;;;;;;4.95;2.10;;;;;;;24.23;41.61;101075.81;5568707;32;33689;-60
2023/08/11 14:34:53;;;;;;;5.80;2.47;;;;;;;24.16;41.72;101067.44;5567895;32;34312;-59
2023/08/11 14:37:57;;;;;;;4.78;1.70;;;;;;;24.10;39.56;101074.34;5568618;32;33389;-60
2023/08/11 14:41:00;;;;;;;2.40;1.70;;;;;;;24.12;39.00;101077.53;5568782;32;33638;-60
2023/08/11 14:44:03;;;;;;;2.78;1.87;;;;;;;24.26;33.18;101077.06;5568308;32;34404;-59
2023/08/11 14:47:12;;;;;;;6.30;2.00;;;;;;;24.28;33.98;101081.03;5553040;32;34332;-60
